Hlavní strana
METAR-TAF:

METAR-TAF

Letiště :

Corinth, Mississippi, Spojené státy americké

zeměpisná šířka: 34-54-54N, zeměpisná délka: 088-36-13W, výška: 130 m

Aktuální stav počasí

Zpráva byla vytvořena před 19 minutami, v 13:35 UTC
Severoseverovýchodní vítr 5 kt
Teplota 6°C
Vlhkost vzduchu 65%
Tlak 1029 hPa
Viditelnost: 16.1 km
Oblačno až skoro zataženo ve výšce 9000 ft
Oblačno až skoro zataženo ve výšce 11000 ft

METAR: KCRX 181335Z AUTO 03005KT 10SM BKN090 BKN110 06/M00 A3039 RMK AO2

Čas: 08:54 (13:54 UTC)


TAF: chybějící

Stav a předpovědi počasí z více než 4 000 letišť (zprávy METAR a TAF).

Červené a žluté tečky na mapě představují dostupné meteorologické stanice.

Když kurzor umístíte na tečku, zobrazí se název stanice.

Pak kliknutím zobrazíte stav a předpověď počasí.

Chcete-li změnit mapu, kliknutím na zelené tlačítko se znaménkem +mapu přiblížíte, kliknutím na zelené tlačítko se znaménkem – mapu oddálíte a kliknutím na zelené šipky přejdete na sousední mapy.


METAR-TAF: